sensor_id;sensor_type;location;lat;lon;timestamp;P1;durP1;ratioP1;P2;durP2;ratioP2
14554;SDS011;7364;50.870;4.722;2022-07-06T00:02:00;3.50;;;3.07;;
14554;SDS011;7364;50.870;4.722;2022-07-06T00:04:27;7.23;;;3.43;;
14554;SDS011;7364;50.870;4.722;2022-07-06T00:06:55;4.33;;;3.17;;
14554;SDS011;7364;50.870;4.722;2022-07-06T00:09:22;7.10;;;4.17;;
14554;SDS011;7364;50.870;4.722;2022-07-06T00:11:50;6.03;;;3.73;;
14554;SDS011;7364;50.870;4.722;2022-07-06T00:14:16;4.67;;;3.13;;
14554;SDS011;7364;50.870;4.722;2022-07-06T00:16:43;6.77;;;3.20;;
14554;SDS011;7364;50.870;4.722;2022-07-06T00:19:11;7.33;;;3.27;;
14554;SDS011;7364;50.870;4.722;2022-07-06T00:21:38;5.30;;;3.27;;
14554;SDS011;7364;50.870;4.722;2022-07-06T00:24:07;5.30;;;3.00;;
14554;SDS011;7364;50.870;4.722;2022-07-06T00:26:34;7.03;;;3.40;;
14554;SDS011;7364;50.870;4.722;2022-07-06T00:29:04;4.87;;;3.43;;
14554;SDS011;7364;50.870;4.722;2022-07-06T00:31:31;6.17;;;3.40;;
14554;SDS011;7364;50.870;4.722;2022-07-06T00:33:58;6.03;;;3.47;;
14554;SDS011;7364;50.870;4.722;2022-07-06T00:36:25;5.77;;;3.50;;
14554;SDS011;7364;50.870;4.722;2022-07-06T00:38:52;5.07;;;3.60;;
14554;SDS011;7364;50.870;4.722;2022-07-06T00:41:21;5.80;;;3.40;;
14554;SDS011;7364;50.870;4.722;2022-07-06T00:43:49;9.27;;;3.20;;
14554;SDS011;7364;50.870;4.722;2022-07-06T00:46:18;3.97;;;3.00;;
14554;SDS011;7364;50.870;4.722;2022-07-06T00:48:45;7.67;;;3.60;;
14554;SDS011;7364;50.870;4.722;2022-07-06T00:51:13;5.37;;;3.37;;
14554;SDS011;7364;50.870;4.722;2022-07-06T00:53:41;7.53;;;3.53;;
14554;SDS011;7364;50.870;4.722;2022-07-06T00:56:10;6.93;;;3.80;;
14554;SDS011;7364;50.870;4.722;2022-07-06T00:58:39;5.70;;;3.37;;
14554;SDS011;7364;50.870;4.722;2022-07-06T01:01:06;8.23;;;3.73;;
14554;SDS011;7364;50.870;4.722;2022-07-06T01:03:33;7.67;;;3.17;;
14554;SDS011;7364;50.870;4.722;2022-07-06T01:06:00;8.20;;;3.50;;
14554;SDS011;7364;50.870;4.722;2022-07-06T01:08:28;4.10;;;3.10;;
14554;SDS011;7364;50.870;4.722;2022-07-06T01:10:56;7.27;;;3.70;;
14554;SDS011;7364;50.870;4.722;2022-07-06T01:13:23;13.47;;;8.10;;
14554;SDS011;7364;50.870;4.722;2022-07-06T01:15:53;8.20;;;4.77;;
14554;SDS011;7364;50.870;4.722;2022-07-06T01:18:20;7.17;;;5.33;;
14554;SDS011;7364;50.870;4.722;2022-07-06T01:20:49;8.30;;;5.00;;
14554;SDS011;7364;50.870;4.722;2022-07-06T01:23:16;11.40;;;4.90;;
14554;SDS011;7364;50.870;4.722;2022-07-06T01:25:43;12.77;;;4.97;;
14554;SDS011;7364;50.870;4.722;2022-07-06T01:28:10;12.40;;;6.07;;
14554;SDS011;7364;50.870;4.722;2022-07-06T01:30:37;6.30;;;4.60;;
14554;SDS011;7364;50.870;4.722;2022-07-06T01:33:06;8.40;;;5.30;;
14554;SDS011;7364;50.870;4.722;2022-07-06T01:35:33;8.63;;;4.90;;
14554;SDS011;7364;50.870;4.722;2022-07-06T01:38:06;8.03;;;5.27;;
14554;SDS011;7364;50.870;4.722;2022-07-06T01:40:33;8.63;;;4.80;;
14554;SDS011;7364;50.870;4.722;2022-07-06T01:43:00;7.83;;;4.63;;
14554;SDS011;7364;50.870;4.722;2022-07-06T01:45:27;6.90;;;3.90;;
14554;SDS011;7364;50.870;4.722;2022-07-06T01:47:58;4.93;;;3.87;;
14554;SDS011;7364;50.870;4.722;2022-07-06T01:50:25;10.70;;;4.90;;
14554;SDS011;7364;50.870;4.722;2022-07-06T01:52:53;6.43;;;4.10;;
14554;SDS011;7364;50.870;4.722;2022-07-06T01:55:21;6.27;;;3.73;;
14554;SDS011;7364;50.870;4.722;2022-07-06T01:57:48;7.03;;;4.17;;
14554;SDS011;7364;50.870;4.722;2022-07-06T02:00:16;6.67;;;4.20;;
14554;SDS011;7364;50.870;4.722;2022-07-06T02:02:43;5.10;;;3.80;;
14554;SDS011;7364;50.870;4.722;2022-07-06T02:05:10;4.80;;;3.73;;
14554;SDS011;7364;50.870;4.722;2022-07-06T02:07:37;7.43;;;3.67;;
14554;SDS011;7364;50.870;4.722;2022-07-06T02:10:05;6.00;;;3.87;;
14554;SDS011;7364;50.870;4.722;2022-07-06T02:12:34;8.60;;;3.93;;
14554;SDS011;7364;50.870;4.722;2022-07-06T02:15:01;6.00;;;3.90;;
14554;SDS011;7364;50.870;4.722;2022-07-06T02:17:28;8.07;;;3.73;;
14554;SDS011;7364;50.870;4.722;2022-07-06T02:19:55;5.90;;;3.47;;
14554;SDS011;7364;50.870;4.722;2022-07-06T02:22:24;5.00;;;3.30;;
14554;SDS011;7364;50.870;4.722;2022-07-06T02:24:51;8.63;;;4.43;;
14554;SDS011;7364;50.870;4.722;2022-07-06T02:27:18;6.37;;;3.80;;
14554;SDS011;7364;50.870;4.722;2022-07-06T02:29:47;5.03;;;3.47;;
14554;SDS011;7364;50.870;4.722;2022-07-06T02:32:14;5.47;;;3.57;;
14554;SDS011;7364;50.870;4.722;2022-07-06T02:34:42;6.73;;;3.60;;
14554;SDS011;7364;50.870;4.722;2022-07-06T02:37:09;7.07;;;4.53;;
14554;SDS011;7364;50.870;4.722;2022-07-06T02:39:36;7.23;;;4.33;;
14554;SDS011;7364;50.870;4.722;2022-07-06T02:42:03;5.57;;;3.80;;
14554;SDS011;7364;50.870;4.722;2022-07-06T02:44:31;5.70;;;4.43;;
14554;SDS011;7364;50.870;4.722;2022-07-06T02:46:59;7.20;;;4.13;;
14554;SDS011;7364;50.870;4.722;2022-07-06T02:49:26;5.63;;;4.03;;
14554;SDS011;7364;50.870;4.722;2022-07-06T02:51:54;8.67;;;4.10;;
14554;SDS011;7364;50.870;4.722;2022-07-06T02:54:21;8.93;;;4.10;;
14554;SDS011;7364;50.870;4.722;2022-07-06T02:56:48;8.30;;;4.27;;
14554;SDS011;7364;50.870;4.722;2022-07-06T02:59:18;9.00;;;4.23;;
14554;SDS011;7364;50.870;4.722;2022-07-06T03:01:45;5.53;;;4.20;;
14554;SDS011;7364;50.870;4.722;2022-07-06T03:04:14;5.87;;;3.73;;
14554;SDS011;7364;50.870;4.722;2022-07-06T03:06:42;5.87;;;3.97;;
14554;SDS011;7364;50.870;4.722;2022-07-06T03:09:10;4.97;;;3.80;;
14554;SDS011;7364;50.870;4.722;2022-07-06T03:11:37;6.10;;;3.63;;
14554;SDS011;7364;50.870;4.722;2022-07-06T03:14:04;5.23;;;3.97;;
14554;SDS011;7364;50.870;4.722;2022-07-06T03:16:32;5.33;;;3.53;;
14554;SDS011;7364;50.870;4.722;2022-07-06T03:18:59;6.40;;;4.07;;
14554;SDS011;7364;50.870;4.722;2022-07-06T03:21:28;7.27;;;3.83;;
14554;SDS011;7364;50.870;4.722;2022-07-06T03:23:55;4.90;;;3.60;;
14554;SDS011;7364;50.870;4.722;2022-07-06T03:26:22;5.53;;;3.87;;
14554;SDS011;7364;50.870;4.722;2022-07-06T03:28:49;4.23;;;3.67;;
14554;SDS011;7364;50.870;4.722;2022-07-06T03:31:16;9.70;;;3.80;;
14554;SDS011;7364;50.870;4.722;2022-07-06T03:33:44;4.87;;;3.90;;
14554;SDS011;7364;50.870;4.722;2022-07-06T03:36:11;7.03;;;4.20;;
14554;SDS011;7364;50.870;4.722;2022-07-06T03:38:40;7.17;;;3.90;;
14554;SDS011;7364;50.870;4.722;2022-07-06T03:41:07;5.40;;;4.00;;
14554;SDS011;7364;50.870;4.722;2022-07-06T03:43:34;7.63;;;4.37;;
14554;SDS011;7364;50.870;4.722;2022-07-06T03:46:03;4.53;;;3.90;;
14554;SDS011;7364;50.870;4.722;2022-07-06T03:48:30;6.07;;;4.00;;
14554;SDS011;7364;50.870;4.722;2022-07-06T03:50:58;7.63;;;4.30;;
14554;SDS011;7364;50.870;4.722;2022-07-06T03:53:25;6.90;;;3.87;;
14554;SDS011;7364;50.870;4.722;2022-07-06T03:55:54;6.63;;;4.00;;
14554;SDS011;7364;50.870;4.722;2022-07-06T03:58:38;5.07;;;3.47;;
14554;SDS011;7364;50.870;4.722;2022-07-06T04:01:05;5.67;;;3.57;;
14554;SDS011;7364;50.870;4.722;2022-07-06T04:03:33;6.37;;;4.00;;
14554;SDS011;7364;50.870;4.722;2022-07-06T04:06:00;6.33;;;3.97;;
14554;SDS011;7364;50.870;4.722;2022-07-06T04:08:27;4.30;;;3.90;;
14554;SDS011;7364;50.870;4.722;2022-07-06T04:10:56;5.40;;;4.13;;
14554;SDS011;7364;50.870;4.722;2022-07-06T04:13:23;9.23;;;4.10;;
14554;SDS011;7364;50.870;4.722;2022-07-06T04:15:51;6.13;;;4.00;;
14554;SDS011;7364;50.870;4.722;2022-07-06T04:18:18;6.17;;;3.63;;
14554;SDS011;7364;50.870;4.722;2022-07-06T04:20:45;4.80;;;3.80;;
14554;SDS011;7364;50.870;4.722;2022-07-06T04:23:13;6.10;;;4.07;;
14554;SDS011;7364;50.870;4.722;2022-07-06T04:25:40;6.80;;;3.80;;
14554;SDS011;7364;50.870;4.722;2022-07-06T04:28:09;5.17;;;3.50;;
14554;SDS011;7364;50.870;4.722;2022-07-06T04:30:36;9.17;;;4.10;;
14554;SDS011;7364;50.870;4.722;2022-07-06T04:33:03;5.20;;;4.47;;
14554;SDS011;7364;50.870;4.722;2022-07-06T04:35:30;7.87;;;4.60;;
14554;SDS011;7364;50.870;4.722;2022-07-06T04:37:57;5.83;;;3.93;;
14554;SDS011;7364;50.870;4.722;2022-07-06T04:40:24;6.33;;;4.13;;
14554;SDS011;7364;50.870;4.722;2022-07-06T04:42:52;6.47;;;4.07;;
14554;SDS011;7364;50.870;4.722;2022-07-06T04:45:20;4.67;;;3.50;;
14554;SDS011;7364;50.870;4.722;2022-07-06T04:47:48;6.10;;;3.63;;
14554;SDS011;7364;50.870;4.722;2022-07-06T04:50:15;9.60;;;4.03;;
14554;SDS011;7364;50.870;4.722;2022-07-06T04:52:42;5.47;;;3.93;;
14554;SDS011;7364;50.870;4.722;2022-07-06T04:55:09;5.10;;;3.40;;
14554;SDS011;7364;50.870;4.722;2022-07-06T04:57:36;6.60;;;4.13;;
14554;SDS011;7364;50.870;4.722;2022-07-06T05:00:04;6.30;;;3.90;;
14554;SDS011;7364;50.870;4.722;2022-07-06T05:02:33;9.03;;;3.83;;
14554;SDS011;7364;50.870;4.722;2022-07-06T05:05:01;4.70;;;3.80;;
14554;SDS011;7364;50.870;4.722;2022-07-06T05:07:28;6.63;;;4.03;;
14554;SDS011;7364;50.870;4.722;2022-07-06T05:09:57;6.40;;;4.30;;
14554;SDS011;7364;50.870;4.722;2022-07-06T05:12:25;4.00;;;3.60;;
14554;SDS011;7364;50.870;4.722;2022-07-06T05:14:52;6.23;;;4.80;;
14554;SDS011;7364;50.870;4.722;2022-07-06T05:17:19;6.33;;;4.50;;
14554;SDS011;7364;50.870;4.722;2022-07-06T05:19:47;8.50;;;5.20;;
14554;SDS011;7364;50.870;4.722;2022-07-06T05:22:14;6.73;;;4.77;;
14554;SDS011;7364;50.870;4.722;2022-07-06T05:24:42;7.57;;;4.00;;
14554;SDS011;7364;50.870;4.722;2022-07-06T05:27:09;8.03;;;4.60;;
14554;SDS011;7364;50.870;4.722;2022-07-06T05:29:36;7.40;;;4.90;;
14554;SDS011;7364;50.870;4.722;2022-07-06T05:32:03;6.77;;;5.07;;
14554;SDS011;7364;50.870;4.722;2022-07-06T05:34:31;10.77;;;5.53;;
14554;SDS011;7364;50.870;4.722;2022-07-06T05:37:00;6.83;;;4.90;;
14554;SDS011;7364;50.870;4.722;2022-07-06T05:39:27;6.70;;;5.23;;
14554;SDS011;7364;50.870;4.722;2022-07-06T05:41:54;6.13;;;4.67;;
14554;SDS011;7364;50.870;4.722;2022-07-06T05:44:21;9.20;;;5.33;;
14554;SDS011;7364;50.870;4.722;2022-07-06T05:46:48;7.23;;;4.93;;
14554;SDS011;7364;50.870;4.722;2022-07-06T05:49:16;6.87;;;5.03;;
14554;SDS011;7364;50.870;4.722;2022-07-06T05:52:02;9.47;;;5.00;;
14554;SDS011;7364;50.870;4.722;2022-07-06T05:54:29;8.67;;;5.47;;
14554;SDS011;7364;50.870;4.722;2022-07-06T05:56:56;10.30;;;5.80;;
14554;SDS011;7364;50.870;4.722;2022-07-06T05:59:24;9.00;;;5.40;;
14554;SDS011;7364;50.870;4.722;2022-07-06T06:01:51;8.43;;;5.00;;
14554;SDS011;7364;50.870;4.722;2022-07-06T06:04:18;9.50;;;5.17;;
14554;SDS011;7364;50.870;4.722;2022-07-06T06:06:46;9.37;;;5.30;;
14554;SDS011;7364;50.870;4.722;2022-07-06T06:09:14;9.87;;;5.47;;
14554;SDS011;7364;50.870;4.722;2022-07-06T06:11:42;7.83;;;5.37;;
14554;SDS011;7364;50.870;4.722;2022-07-06T06:14:09;8.27;;;5.33;;
14554;SDS011;7364;50.870;4.722;2022-07-06T06:16:36;11.43;;;6.67;;
14554;SDS011;7364;50.870;4.722;2022-07-06T06:19:03;7.57;;;5.13;;
14554;SDS011;7364;50.870;4.722;2022-07-06T06:21:30;7.37;;;5.53;;
14554;SDS011;7364;50.870;4.722;2022-07-06T06:23:57;10.23;;;5.60;;
14554;SDS011;7364;50.870;4.722;2022-07-06T06:26:26;9.60;;;5.77;;
14554;SDS011;7364;50.870;4.722;2022-07-06T06:28:54;16.13;;;6.47;;
14554;SDS011;7364;50.870;4.722;2022-07-06T06:31:21;6.87;;;5.30;;
14554;SDS011;7364;50.870;4.722;2022-07-06T06:33:48;11.67;;;5.50;;
14554;SDS011;7364;50.870;4.722;2022-07-06T06:36:16;7.70;;;5.60;;
14554;SDS011;7364;50.870;4.722;2022-07-06T06:38:46;6.93;;;6.10;;
14554;SDS011;7364;50.870;4.722;2022-07-06T06:41:13;14.30;;;5.77;;
14554;SDS011;7364;50.870;4.722;2022-07-06T06:43:42;10.50;;;6.07;;
14554;SDS011;7364;50.870;4.722;2022-07-06T06:46:14;9.17;;;5.90;;
14554;SDS011;7364;50.870;4.722;2022-07-06T06:48:41;9.63;;;5.37;;
14554;SDS011;7364;50.870;4.722;2022-07-06T06:51:08;12.50;;;5.50;;
14554;SDS011;7364;50.870;4.722;2022-07-06T06:53:36;8.93;;;5.37;;
14554;SDS011;7364;50.870;4.722;2022-07-06T06:56:03;9.37;;;4.70;;
14554;SDS011;7364;50.870;4.722;2022-07-06T06:58:30;6.93;;;4.97;;
14554;SDS011;7364;50.870;4.722;2022-07-06T07:00:59;9.73;;;4.93;;
14554;SDS011;7364;50.870;4.722;2022-07-06T07:03:26;8.03;;;4.90;;
14554;SDS011;7364;50.870;4.722;2022-07-06T07:05:53;8.00;;;4.80;;
14554;SDS011;7364;50.870;4.722;2022-07-06T07:08:21;10.97;;;3.97;;
14554;SDS011;7364;50.870;4.722;2022-07-06T07:10:48;5.97;;;3.80;;
14554;SDS011;7364;50.870;4.722;2022-07-06T07:13:15;8.20;;;3.33;;
14554;SDS011;7364;50.870;4.722;2022-07-06T07:15:42;6.47;;;3.90;;
14554;SDS011;7364;50.870;4.722;2022-07-06T07:18:11;9.67;;;3.83;;
14554;SDS011;7364;50.870;4.722;2022-07-06T07:20:38;7.47;;;3.90;;
14554;SDS011;7364;50.870;4.722;2022-07-06T07:23:05;5.53;;;3.67;;
14554;SDS011;7364;50.870;4.722;2022-07-06T07:25:32;8.37;;;4.17;;
14554;SDS011;7364;50.870;4.722;2022-07-06T07:27:59;6.30;;;3.90;;
14554;SDS011;7364;50.870;4.722;2022-07-06T07:30:26;9.40;;;4.33;;
14554;SDS011;7364;50.870;4.722;2022-07-06T07:32:53;7.70;;;3.10;;
14554;SDS011;7364;50.870;4.722;2022-07-06T07:35:22;6.37;;;2.80;;
14554;SDS011;7364;50.870;4.722;2022-07-06T07:37:49;9.23;;;2.93;;
14554;SDS011;7364;50.870;4.722;2022-07-06T07:40:17;8.63;;;3.00;;
14554;SDS011;7364;50.870;4.722;2022-07-06T07:42:44;5.30;;;2.80;;
14554;SDS011;7364;50.870;4.722;2022-07-06T07:45:11;4.83;;;2.67;;
14554;SDS011;7364;50.870;4.722;2022-07-06T07:47:38;8.70;;;3.17;;
14554;SDS011;7364;50.870;4.722;2022-07-06T07:50:06;4.90;;;2.80;;
14554;SDS011;7364;50.870;4.722;2022-07-06T07:52:35;4.77;;;1.93;;
14554;SDS011;7364;50.870;4.722;2022-07-06T07:55:03;3.77;;;1.73;;
14554;SDS011;7364;50.870;4.722;2022-07-06T07:57:30;5.17;;;1.90;;
14554;SDS011;7364;50.870;4.722;2022-07-06T07:59:58;4.47;;;1.93;;
14554;SDS011;7364;50.870;4.722;2022-07-06T08:02:25;5.60;;;1.80;;
14554;SDS011;7364;50.870;4.722;2022-07-06T08:04:52;5.03;;;1.83;;
14554;SDS011;7364;50.870;4.722;2022-07-06T08:07:19;4.23;;;2.00;;
14554;SDS011;7364;50.870;4.722;2022-07-06T08:09:47;4.40;;;2.03;;
14554;SDS011;7364;50.870;4.722;2022-07-06T08:12:14;6.37;;;2.33;;
14554;SDS011;7364;50.870;4.722;2022-07-06T08:14:41;8.73;;;2.57;;
14554;SDS011;7364;50.870;4.722;2022-07-06T08:17:08;8.23;;;1.87;;
14554;SDS011;7364;50.870;4.722;2022-07-06T08:19:36;6.73;;;2.03;;
14554;SDS011;7364;50.870;4.722;2022-07-06T08:22:03;5.50;;;2.50;;
14554;SDS011;7364;50.870;4.722;2022-07-06T08:24:32;5.07;;;1.83;;
14554;SDS011;7364;50.870;4.722;2022-07-06T08:27:01;5.10;;;1.73;;
14554;SDS011;7364;50.870;4.722;2022-07-06T08:29:29;5.30;;;1.90;;
14554;SDS011;7364;50.870;4.722;2022-07-06T08:31:56;7.53;;;2.23;;
14554;SDS011;7364;50.870;4.722;2022-07-06T08:34:23;5.07;;;2.03;;
14554;SDS011;7364;50.870;4.722;2022-07-06T08:36:50;9.43;;;2.17;;
14554;SDS011;7364;50.870;4.722;2022-07-06T08:39:18;7.50;;;2.70;;
14554;SDS011;7364;50.870;4.722;2022-07-06T08:41:45;5.93;;;2.40;;
14554;SDS011;7364;50.870;4.722;2022-07-06T08:44:15;9.57;;;2.83;;
14554;SDS011;7364;50.870;4.722;2022-07-06T08:46:43;5.50;;;2.13;;
14554;SDS011;7364;50.870;4.722;2022-07-06T08:49:12;5.63;;;2.40;;
14554;SDS011;7364;50.870;4.722;2022-07-06T08:51:43;5.37;;;2.30;;
14554;SDS011;7364;50.870;4.722;2022-07-06T08:54:11;4.70;;;2.27;;
14554;SDS011;7364;50.870;4.722;2022-07-06T08:56:39;4.70;;;2.33;;
14554;SDS011;7364;50.870;4.722;2022-07-06T08:59:07;6.63;;;2.43;;
14554;SDS011;7364;50.870;4.722;2022-07-06T09:01:37;3.73;;;2.17;;
14554;SDS011;7364;50.870;4.722;2022-07-06T09:04:05;5.10;;;2.33;;
14554;SDS011;7364;50.870;4.722;2022-07-06T09:06:33;6.63;;;2.43;;
14554;SDS011;7364;50.870;4.722;2022-07-06T09:09:02;5.83;;;2.30;;
14554;SDS011;7364;50.870;4.722;2022-07-06T09:11:32;5.03;;;2.20;;
14554;SDS011;7364;50.870;4.722;2022-07-06T09:14:00;4.53;;;2.23;;
14554;SDS011;7364;50.870;4.722;2022-07-06T09:16:28;6.43;;;2.53;;
14554;SDS011;7364;50.870;4.722;2022-07-06T09:18:59;6.40;;;2.30;;
14554;SDS011;7364;50.870;4.722;2022-07-06T09:21:26;5.77;;;2.40;;
14554;SDS011;7364;50.870;4.722;2022-07-06T09:23:56;5.93;;;2.10;;
14554;SDS011;7364;50.870;4.722;2022-07-06T09:26:24;5.20;;;2.03;;
14554;SDS011;7364;50.870;4.722;2022-07-06T09:28:52;3.63;;;2.20;;
14554;SDS011;7364;50.870;4.722;2022-07-06T09:31:21;8.23;;;2.40;;
14554;SDS011;7364;50.870;4.722;2022-07-06T09:33:55;4.70;;;2.23;;
14554;SDS011;7364;50.870;4.722;2022-07-06T09:36:39;7.20;;;2.40;;
14554;SDS011;7364;50.870;4.722;2022-07-06T09:39:14;6.07;;;2.43;;
14554;SDS011;7364;50.870;4.722;2022-07-06T09:41:46;5.10;;;1.90;;
14554;SDS011;7364;50.870;4.722;2022-07-06T09:44:17;4.17;;;1.80;;
14554;SDS011;7364;50.870;4.722;2022-07-06T09:46:46;15.23;;;2.60;;
14554;SDS011;7364;50.870;4.722;2022-07-06T09:49:16;4.83;;;1.97;;
14554;SDS011;7364;50.870;4.722;2022-07-06T09:51:45;5.50;;;2.20;;
14554;SDS011;7364;50.870;4.722;2022-07-06T09:54:13;8.97;;;2.37;;
14554;SDS011;7364;50.870;4.722;2022-07-06T09:56:42;2.97;;;1.70;;
14554;SDS011;7364;50.870;4.722;2022-07-06T09:59:13;5.00;;;2.33;;
14554;SDS011;7364;50.870;4.722;2022-07-06T10:01:42;5.20;;;1.90;;
14554;SDS011;7364;50.870;4.722;2022-07-06T10:04:10;4.50;;;2.73;;
14554;SDS011;7364;50.870;4.722;2022-07-06T10:06:39;5.53;;;2.20;;
14554;SDS011;7364;50.870;4.722;2022-07-06T10:09:08;5.63;;;1.67;;
14554;SDS011;7364;50.870;4.722;2022-07-06T10:11:37;4.40;;;1.70;;
14554;SDS011;7364;50.870;4.722;2022-07-06T10:14:06;5.67;;;2.17;;
14554;SDS011;7364;50.870;4.722;2022-07-06T10:16:34;8.00;;;1.97;;
14554;SDS011;7364;50.870;4.722;2022-07-06T10:19:04;4.17;;;2.00;;
14554;SDS011;7364;50.870;4.722;2022-07-06T10:21:32;5.20;;;1.60;;
14554;SDS011;7364;50.870;4.722;2022-07-06T10:24:02;4.20;;;1.80;;
14554;SDS011;7364;50.870;4.722;2022-07-06T10:26:32;5.10;;;2.47;;
14554;SDS011;7364;50.870;4.722;2022-07-06T10:28:59;5.90;;;2.47;;
14554;SDS011;7364;50.870;4.722;2022-07-06T10:31:27;5.60;;;2.10;;
14554;SDS011;7364;50.870;4.722;2022-07-06T10:33:55;4.00;;;1.70;;
14554;SDS011;7364;50.870;4.722;2022-07-06T10:36:24;5.93;;;1.93;;
14554;SDS011;7364;50.870;4.722;2022-07-06T10:38:52;4.27;;;2.00;;
14554;SDS011;7364;50.870;4.722;2022-07-06T10:41:30;8.30;;;2.00;;
14554;SDS011;7364;50.870;4.722;2022-07-06T10:43:58;4.33;;;2.13;;
14554;SDS011;7364;50.870;4.722;2022-07-06T10:46:49;5.73;;;2.17;;
14554;SDS011;7364;50.870;4.722;2022-07-06T10:49:18;4.00;;;1.93;;
14554;SDS011;7364;50.870;4.722;2022-07-06T10:51:45;4.20;;;1.93;;
14554;SDS011;7364;50.870;4.722;2022-07-06T10:54:14;6.33;;;2.37;;
14554;SDS011;7364;50.870;4.722;2022-07-06T10:56:45;5.60;;;2.10;;
14554;SDS011;7364;50.870;4.722;2022-07-06T10:59:13;5.87;;;2.00;;
14554;SDS011;7364;50.870;4.722;2022-07-06T11:04:39;3.73;;;1.80;;
14554;SDS011;7364;50.870;4.722;2022-07-06T11:07:07;3.97;;;1.80;;
14554;SDS011;7364;50.870;4.722;2022-07-06T11:09:35;5.37;;;2.20;;
14554;SDS011;7364;50.870;4.722;2022-07-06T11:12:13;4.70;;;2.27;;
14554;SDS011;7364;50.870;4.722;2022-07-06T11:14:43;2.83;;;1.60;;
14554;SDS011;7364;50.870;4.722;2022-07-06T11:17:11;3.07;;;1.73;;
14554;SDS011;7364;50.870;4.722;2022-07-06T11:19:47;4.27;;;2.10;;
14554;SDS011;7364;50.870;4.722;2022-07-06T11:22:15;5.50;;;2.13;;
14554;SDS011;7364;50.870;4.722;2022-07-06T11:24:45;5.67;;;2.40;;
14554;SDS011;7364;50.870;4.722;2022-07-06T11:27:14;3.87;;;2.20;;
14554;SDS011;7364;50.870;4.722;2022-07-06T11:29:41;3.53;;;2.17;;
14554;SDS011;7364;50.870;4.722;2022-07-06T11:32:10;6.77;;;2.67;;
14554;SDS011;7364;50.870;4.722;2022-07-06T11:34:40;4.83;;;2.40;;
14554;SDS011;7364;50.870;4.722;2022-07-06T11:37:09;7.40;;;2.77;;
14554;SDS011;7364;50.870;4.722;2022-07-06T11:39:38;10.40;;;2.80;;
14554;SDS011;7364;50.870;4.722;2022-07-06T11:42:06;7.93;;;2.43;;
14554;SDS011;7364;50.870;4.722;2022-07-06T11:44:36;4.10;;;2.40;;
14554;SDS011;7364;50.870;4.722;2022-07-06T11:47:04;4.40;;;2.10;;
14554;SDS011;7364;50.870;4.722;2022-07-06T11:49:34;4.03;;;2.20;;
14554;SDS011;7364;50.870;4.722;2022-07-06T11:52:04;4.50;;;2.30;;
14554;SDS011;7364;50.870;4.722;2022-07-06T11:54:33;5.00;;;2.03;;
14554;SDS011;7364;50.870;4.722;2022-07-06T11:57:01;7.83;;;2.80;;
14554;SDS011;7364;50.870;4.722;2022-07-06T11:59:30;7.03;;;2.60;;
14554;SDS011;7364;50.870;4.722;2022-07-06T12:02:00;6.47;;;2.80;;
14554;SDS011;7364;50.870;4.722;2022-07-06T12:04:29;4.93;;;2.30;;
14554;SDS011;7364;50.870;4.722;2022-07-06T12:07:00;5.33;;;2.83;;
14554;SDS011;7364;50.870;4.722;2022-07-06T12:09:29;5.17;;;2.40;;
14554;SDS011;7364;50.870;4.722;2022-07-06T12:11:58;4.63;;;2.67;;
14554;SDS011;7364;50.870;4.722;2022-07-06T12:14:28;4.43;;;2.80;;
14554;SDS011;7364;50.870;4.722;2022-07-06T12:16:56;9.60;;;2.73;;
14554;SDS011;7364;50.870;4.722;2022-07-06T12:19:32;4.80;;;3.00;;
14554;SDS011;7364;50.870;4.722;2022-07-06T12:21:59;5.97;;;3.00;;
14554;SDS011;7364;50.870;4.722;2022-07-06T12:24:29;6.17;;;2.70;;
14554;SDS011;7364;50.870;4.722;2022-07-06T12:26:58;5.63;;;2.90;;
14554;SDS011;7364;50.870;4.722;2022-07-06T12:29:37;3.53;;;2.60;;
14554;SDS011;7364;50.870;4.722;2022-07-06T12:32:06;5.33;;;2.60;;
14554;SDS011;7364;50.870;4.722;2022-07-06T12:34:40;5.53;;;2.90;;
14554;SDS011;7364;50.870;4.722;2022-07-06T12:37:08;5.27;;;2.80;;
14554;SDS011;7364;50.870;4.722;2022-07-06T12:39:41;7.00;;;3.07;;
14554;SDS011;7364;50.870;4.722;2022-07-06T12:42:09;6.40;;;3.23;;
14554;SDS011;7364;50.870;4.722;2022-07-06T12:44:41;9.97;;;3.00;;
14554;SDS011;7364;50.870;4.722;2022-07-06T12:47:11;6.27;;;3.10;;
14554;SDS011;7364;50.870;4.722;2022-07-06T12:49:39;6.93;;;2.87;;
14554;SDS011;7364;50.870;4.722;2022-07-06T12:52:08;8.07;;;3.27;;
14554;SDS011;7364;50.870;4.722;2022-07-06T12:54:40;5.83;;;2.73;;
14554;SDS011;7364;50.870;4.722;2022-07-06T12:57:09;5.17;;;2.70;;
14554;SDS011;7364;50.870;4.722;2022-07-06T12:59:39;3.77;;;2.30;;
14554;SDS011;7364;50.870;4.722;2022-07-06T13:02:08;5.07;;;2.90;;
14554;SDS011;7364;50.870;4.722;2022-07-06T13:04:46;5.15;;;2.80;;
14554;SDS011;7364;50.870;4.722;2022-07-06T13:07:22;10.75;;;3.63;;
14554;SDS011;7364;50.870;4.722;2022-07-06T13:09:49;5.95;;;3.22;;
14554;SDS011;7364;50.870;4.722;2022-07-06T13:12:17;5.78;;;3.00;;
14554;SDS011;7364;50.870;4.722;2022-07-06T13:14:44;9.23;;;2.60;;
14554;SDS011;7364;50.870;4.722;2022-07-06T13:17:13;5.00;;;2.67;;
14554;SDS011;7364;50.870;4.722;2022-07-06T13:19:40;5.55;;;2.97;;
14554;SDS011;7364;50.870;4.722;2022-07-06T13:22:07;3.90;;;3.10;;
14554;SDS011;7364;50.870;4.722;2022-07-06T13:24:35;9.52;;;3.20;;
14554;SDS011;7364;50.870;4.722;2022-07-06T13:27:02;4.25;;;2.95;;
14554;SDS011;7364;50.870;4.722;2022-07-06T13:29:30;6.10;;;3.03;;
14554;SDS011;7364;50.870;4.722;2022-07-06T13:31:57;6.20;;;2.50;;
14554;SDS011;7364;50.870;4.722;2022-07-06T13:34:26;5.40;;;2.63;;
14554;SDS011;7364;50.870;4.722;2022-07-06T13:36:53;5.40;;;3.50;;
14554;SDS011;7364;50.870;4.722;2022-07-06T13:39:27;7.20;;;3.40;;
14554;SDS011;7364;50.870;4.722;2022-07-06T13:41:55;4.20;;;2.80;;
14554;SDS011;7364;50.870;4.722;2022-07-06T13:44:22;4.90;;;3.27;;
14554;SDS011;7364;50.870;4.722;2022-07-06T13:46:51;7.97;;;3.20;;
14554;SDS011;7364;50.870;4.722;2022-07-06T13:49:21;5.20;;;2.60;;
14554;SDS011;7364;50.870;4.722;2022-07-06T13:51:50;6.37;;;3.50;;
14554;SDS011;7364;50.870;4.722;2022-07-06T13:54:17;4.83;;;3.33;;
14554;SDS011;7364;50.870;4.722;2022-07-06T13:56:44;4.80;;;3.30;;
14554;SDS011;7364;50.870;4.722;2022-07-06T13:59:11;7.20;;;2.90;;
14554;SDS011;7364;50.870;4.722;2022-07-06T14:01:39;5.60;;;2.93;;
14554;SDS011;7364;50.870;4.722;2022-07-06T14:04:06;5.57;;;2.63;;
14554;SDS011;7364;50.870;4.722;2022-07-06T14:06:33;7.53;;;3.10;;
14554;SDS011;7364;50.870;4.722;2022-07-06T14:09:02;6.65;;;2.70;;
14554;SDS011;7364;50.870;4.722;2022-07-06T14:11:30;7.10;;;2.55;;
14554;SDS011;7364;50.870;4.722;2022-07-06T14:13:57;5.43;;;2.67;;
14554;SDS011;7364;50.870;4.722;2022-07-06T14:16:24;4.45;;;2.47;;
14554;SDS011;7364;50.870;4.722;2022-07-06T14:18:52;4.32;;;2.30;;
14554;SDS011;7364;50.870;4.722;2022-07-06T14:21:19;8.18;;;2.75;;
14554;SDS011;7364;50.870;4.722;2022-07-06T14:23:46;3.70;;;2.28;;
14554;SDS011;7364;50.870;4.722;2022-07-06T14:26:16;4.68;;;2.55;;
14554;SDS011;7364;50.870;4.722;2022-07-06T14:28:43;4.90;;;2.20;;
14554;SDS011;7364;50.870;4.722;2022-07-06T14:31:10;4.80;;;2.47;;
14554;SDS011;7364;50.870;4.722;2022-07-06T14:33:38;5.90;;;2.37;;
14554;SDS011;7364;50.870;4.722;2022-07-06T14:36:05;4.47;;;2.53;;
14554;SDS011;7364;50.870;4.722;2022-07-06T14:38:32;7.67;;;3.03;;
14554;SDS011;7364;50.870;4.722;2022-07-06T14:41:00;7.73;;;2.80;;
14554;SDS011;7364;50.870;4.722;2022-07-06T14:43:29;6.37;;;2.73;;
14554;SDS011;7364;50.870;4.722;2022-07-06T14:45:56;6.57;;;2.60;;
14554;SDS011;7364;50.870;4.722;2022-07-06T14:48:23;5.00;;;2.27;;
14554;SDS011;7364;50.870;4.722;2022-07-06T14:50:50;4.07;;;2.53;;
14554;SDS011;7364;50.870;4.722;2022-07-06T14:53:17;7.80;;;2.77;;
14554;SDS011;7364;50.870;4.722;2022-07-06T14:55:46;5.40;;;2.50;;
14554;SDS011;7364;50.870;4.722;2022-07-06T14:58:14;4.57;;;2.53;;
14554;SDS011;7364;50.870;4.722;2022-07-06T15:00:47;4.03;;;2.20;;
14554;SDS011;7364;50.870;4.722;2022-07-06T15:03:14;6.33;;;2.70;;
14554;SDS011;7364;50.870;4.722;2022-07-06T15:05:41;8.53;;;3.00;;
14554;SDS011;7364;50.870;4.722;2022-07-06T15:08:11;5.00;;;2.67;;
14554;SDS011;7364;50.870;4.722;2022-07-06T15:10:39;7.07;;;2.63;;